sensor_id;sensor_type;location;lat;lon;timestamp;pressure;altitude;pressure_sealevel;temperature;humidity
13836;BME280;6988;52.614;13.500;2022-08-01T00:04:02;53498.84;;;-143.77;57.35
13836;BME280;6988;52.614;13.500;2022-08-01T00:08:54;53515.25;;;-143.77;57.45
13836;BME280;6988;52.614;13.500;2022-08-01T00:13:47;53496.81;;;-143.77;57.85
13836;BME280;6988;52.614;13.500;2022-08-01T00:18:39;53529.63;;;-143.77;57.58
13836;BME280;6988;52.614;13.500;2022-08-01T00:23:31;53492.69;;;-143.77;57.72
13836;BME280;6988;52.614;13.500;2022-08-01T00:28:23;53507.06;;;-143.77;58.07
13836;BME280;6988;52.614;13.500;2022-08-01T00:33:16;53535.78;;;-143.77;58.75
13836;BME280;6988;52.614;13.500;2022-08-01T00:38:08;53507.06;;;-143.77;60.26
13836;BME280;6988;52.614;13.500;2022-08-01T00:43:00;53541.94;;;-143.77;62.25
13836;BME280;6988;52.614;13.500;2022-08-01T00:47:52;53525.53;;;-143.77;63.69
13836;BME280;6988;52.614;13.500;2022-08-01T00:52:45;53550.13;;;-143.77;66.15
13836;BME280;6988;52.614;13.500;2022-08-01T00:57:38;53552.19;;;-143.77;67.35
13836;BME280;6988;52.614;13.500;2022-08-01T01:02:31;53605.53;;;-143.77;68.43
13836;BME280;6988;52.614;13.500;2022-08-01T01:07:32;53578.84;;;-143.77;69.63
13836;BME280;6988;52.614;13.500;2022-08-01T01:12:33;53591.16;;;-143.77;70.20
13836;BME280;6988;52.614;13.500;2022-08-01T01:17:36;53543.97;;;-143.77;70.00
13836;BME280;6988;52.614;13.500;2022-08-01T01:22:46;53556.28;;;-143.77;69.96
13836;BME280;6988;52.614;13.500;2022-08-01T01:27:51;53646.56;;;-143.77;69.83
13836;BME280;6988;52.614;13.500;2022-08-01T01:32:52;53539.88;;;-143.77;70.08
13836;BME280;6988;52.614;13.500;2022-08-01T01:37:48;53572.72;;;-143.77;69.88
13836;BME280;6988;52.614;13.500;2022-08-01T01:42:42;53597.31;;;-143.77;69.58
13836;BME280;6988;52.614;13.500;2022-08-01T01:47:37;53576.81;;;-143.77;69.76
13836;BME280;6988;52.614;13.500;2022-08-01T01:52:32;53580.91;;;-143.77;69.43
13836;BME280;6988;52.614;13.500;2022-08-01T01:57:25;53597.31;;;-143.77;70.27
13836;BME280;6988;52.614;13.500;2022-08-01T02:02:18;53607.59;;;-143.77;71.00
13836;BME280;6988;52.614;13.500;2022-08-01T02:07:23;53550.13;;;-143.77;71.89
13836;BME280;6988;52.614;13.500;2022-08-01T02:12:18;53607.59;;;-143.77;71.69
13836;BME280;6988;52.614;13.500;2022-08-01T02:17:16;53617.84;;;-143.77;72.77
13836;BME280;6988;52.614;13.500;2022-08-01T02:22:15;53613.72;;;-143.77;73.96
13836;BME280;6988;52.614;13.500;2022-08-01T02:27:11;53632.19;;;-143.77;73.97
13836;BME280;6988;52.614;13.500;2022-08-01T02:32:07;53644.50;;;-143.77;74.27
13836;BME280;6988;52.614;13.500;2022-08-01T02:37:03;53613.72;;;-143.77;74.96
13836;BME280;6988;52.614;13.500;2022-08-01T02:42:04;53619.88;;;-143.77;74.87
13836;BME280;6988;52.614;13.500;2022-08-01T02:47:00;53634.25;;;-143.77;74.58
13836;BME280;6988;52.614;13.500;2022-08-01T02:51:56;53658.88;;;-143.77;73.90
13836;BME280;6988;52.614;13.500;2022-08-01T02:56:51;53626.03;;;-143.77;73.47
13836;BME280;6988;52.614;13.500;2022-08-01T03:01:46;53640.41;;;-143.77;73.57
13836;BME280;6988;52.614;13.500;2022-08-01T03:06:40;53650.66;;;-143.77;74.45
13836;BME280;6988;52.614;13.500;2022-08-01T03:11:37;53613.72;;;-143.77;74.36
13836;BME280;6988;52.614;13.500;2022-08-01T03:16:33;53642.47;;;-143.77;73.30
13836;BME280;6988;52.614;13.500;2022-08-01T03:21:29;53652.72;;;-143.77;72.31
13836;BME280;6988;52.614;13.500;2022-08-01T03:26:27;53734.78;;;-143.77;72.19
13836;BME280;6988;52.614;13.500;2022-08-01T03:31:22;53642.47;;;-143.77;73.02
13836;BME280;6988;52.614;13.500;2022-08-01T03:36:15;53626.03;;;-143.77;72.46
13836;BME280;6988;52.614;13.500;2022-08-01T03:41:13;53667.06;;;-143.77;72.44
13836;BME280;6988;52.614;13.500;2022-08-01T03:46:13;53646.56;;;-143.77;73.86
13836;BME280;6988;52.614;13.500;2022-08-01T03:51:10;53613.72;;;-143.77;73.14
13836;BME280;6988;52.614;13.500;2022-08-01T03:56:04;53638.34;;;-143.77;73.36
13836;BME280;6988;52.614;13.500;2022-08-01T04:00:59;53648.59;;;-143.77;73.28
13836;BME280;6988;52.614;13.500;2022-08-01T04:05:51;53654.75;;;-143.77;74.20
13836;BME280;6988;52.614;13.500;2022-08-01T04:10:44;53634.25;;;-143.77;74.12
13836;BME280;6988;52.614;13.500;2022-08-01T04:15:36;53648.59;;;-143.77;74.80
13836;BME280;6988;52.614;13.500;2022-08-01T04:20:28;53644.50;;;-143.77;74.91
13836;BME280;6988;52.614;13.500;2022-08-01T04:25:28;53658.88;;;-143.77;75.78
13836;BME280;6988;52.614;13.500;2022-08-01T04:30:26;53662.97;;;-143.77;75.58
13836;BME280;6988;52.614;13.500;2022-08-01T04:35:21;53636.31;;;-143.77;75.92
13836;BME280;6988;52.614;13.500;2022-08-01T04:40:14;53642.47;;;-143.77;75.28
13836;BME280;6988;52.614;13.500;2022-08-01T04:45:08;53665.03;;;-143.77;74.91
13836;BME280;6988;52.614;13.500;2022-08-01T04:50:05;53646.56;;;-143.77;75.28
13836;BME280;6988;52.614;13.500;2022-08-01T04:54:58;53658.88;;;-143.77;76.41
13836;BME280;6988;52.614;13.500;2022-08-01T04:59:50;53650.66;;;-143.77;76.20
13836;BME280;6988;52.614;13.500;2022-08-01T05:04:47;53667.06;;;-143.77;76.01
13836;BME280;6988;52.614;13.500;2022-08-01T05:09:40;53626.03;;;-143.77;76.33
13836;BME280;6988;52.614;13.500;2022-08-01T05:14:33;53619.88;;;-143.77;76.36
13836;BME280;6988;52.614;13.500;2022-08-01T05:19:25;53624.00;;;-143.77;76.04
13836;BME280;6988;52.614;13.500;2022-08-01T05:24:17;53646.56;;;-143.77;76.21
13836;BME280;6988;52.614;13.500;2022-08-01T05:29:10;53613.72;;;-143.77;76.45
13836;BME280;6988;52.614;13.500;2022-08-01T05:34:03;53636.31;;;-143.77;76.05
13836;BME280;6988;52.614;13.500;2022-08-01T05:38:55;53642.47;;;-143.77;76.58
13836;BME280;6988;52.614;13.500;2022-08-01T05:43:46;53648.59;;;-143.77;77.46
13836;BME280;6988;52.614;13.500;2022-08-01T05:48:39;53693.75;;;-143.77;77.55
13836;BME280;6988;52.614;13.500;2022-08-01T05:53:31;53654.75;;;-143.77;78.04
13836;BME280;6988;52.614;13.500;2022-08-01T05:58:24;53644.50;;;-143.77;78.18
13836;BME280;6988;52.614;13.500;2022-08-01T06:03:16;53650.66;;;-143.77;78.32
13836;BME280;6988;52.614;13.500;2022-08-01T06:08:09;53650.66;;;-143.77;78.18
13836;BME280;6988;52.614;13.500;2022-08-01T06:13:01;53650.66;;;-143.77;78.28
13836;BME280;6988;52.614;13.500;2022-08-01T06:17:53;53650.66;;;-143.77;77.89
13836;BME280;6988;52.614;13.500;2022-08-01T06:22:45;53654.75;;;-143.77;78.17
13836;BME280;6988;52.614;13.500;2022-08-01T06:27:38;53652.72;;;-143.77;78.16
13836;BME280;6988;52.614;13.500;2022-08-01T06:32:30;53720.41;;;-143.77;77.93
13836;BME280;6988;52.614;13.500;2022-08-01T06:37:22;53658.88;;;-143.77;77.55
13836;BME280;6988;52.614;13.500;2022-08-01T06:42:14;53642.47;;;-143.77;76.84
13836;BME280;6988;52.614;13.500;2022-08-01T06:47:07;53609.63;;;-143.77;76.41
13836;BME280;6988;52.614;13.500;2022-08-01T06:51:59;53589.13;;;-143.77;76.30
13836;BME280;6988;52.614;13.500;2022-08-01T06:56:50;53595.28;;;-143.77;75.43
13836;BME280;6988;52.614;13.500;2022-08-01T07:01:42;53578.84;;;-143.77;74.14
13836;BME280;6988;52.614;13.500;2022-08-01T07:06:35;53617.84;;;-143.77;73.46
13836;BME280;6988;52.614;13.500;2022-08-01T07:11:27;53572.72;;;-143.77;73.30
13836;BME280;6988;52.614;13.500;2022-08-01T07:16:19;53650.66;;;-143.77;73.12
13836;BME280;6988;52.614;13.500;2022-08-01T07:21:11;53589.13;;;-143.77;73.14
13836;BME280;6988;52.614;13.500;2022-08-01T07:26:04;53576.81;;;-143.77;72.51
13836;BME280;6988;52.614;13.500;2022-08-01T07:30:57;53578.84;;;-143.77;71.62
13836;BME280;6988;52.614;13.500;2022-08-01T07:35:48;53580.91;;;-143.77;71.31
13836;BME280;6988;52.614;13.500;2022-08-01T07:40:40;53617.84;;;-143.77;71.21
13836;BME280;6988;52.614;13.500;2022-08-01T07:45:33;53578.84;;;-143.77;70.93
13836;BME280;6988;52.614;13.500;2022-08-01T07:50:25;53597.31;;;-143.77;71.07
13836;BME280;6988;52.614;13.500;2022-08-01T07:55:17;53599.38;;;-143.77;71.29
13836;BME280;6988;52.614;13.500;2022-08-01T08:00:10;53548.09;;;-143.77;70.93
13836;BME280;6988;52.614;13.500;2022-08-01T08:05:04;53537.84;;;-143.77;69.09
13836;BME280;6988;52.614;13.500;2022-08-01T08:09:57;53554.25;;;-143.77;68.56
13836;BME280;6988;52.614;13.500;2022-08-01T08:14:49;53580.91;;;-143.77;68.87
13836;BME280;6988;52.614;13.500;2022-08-01T08:19:40;53585.00;;;-143.77;68.16
13836;BME280;6988;52.614;13.500;2022-08-01T08:24:34;53543.97;;;-143.77;68.56
13836;BME280;6988;52.614;13.500;2022-08-01T08:29:27;53533.72;;;-143.77;67.92
13836;BME280;6988;52.614;13.500;2022-08-01T08:34:20;53457.81;;;-143.77;66.28
13836;BME280;6988;52.614;13.500;2022-08-01T08:39:12;53461.94;;;-143.77;64.78
13836;BME280;6988;52.614;13.500;2022-08-01T08:44:07;53527.56;;;-143.77;64.05
13836;BME280;6988;52.614;13.500;2022-08-01T08:49:01;53482.44;;;-143.77;64.29
13836;BME280;6988;52.614;13.500;2022-08-01T08:53:57;53500.91;;;-143.77;63.35
13836;BME280;6988;52.614;13.500;2022-08-01T08:58:51;53515.25;;;-143.77;64.05
13836;BME280;6988;52.614;13.500;2022-08-01T09:03:44;53482.44;;;-143.77;62.96
13836;BME280;6988;52.614;13.500;2022-08-01T09:08:36;53478.34;;;-143.77;63.24
13836;BME280;6988;52.614;13.500;2022-08-01T09:13:28;53457.81;;;-143.77;62.16
13836;BME280;6988;52.614;13.500;2022-08-01T09:18:29;53396.28;;;-143.77;62.17
13836;BME280;6988;52.614;13.500;2022-08-01T09:23:33;53466.03;;;-143.77;62.02
13836;BME280;6988;52.614;13.500;2022-08-01T09:28:28;53470.13;;;-143.77;61.51
13836;BME280;6988;52.614;13.500;2022-08-01T09:33:20;53463.97;;;-143.77;61.33
13836;BME280;6988;52.614;13.500;2022-08-01T09:38:14;53507.06;;;-143.77;61.45
13836;BME280;6988;52.614;13.500;2022-08-01T09:43:17;53511.16;;;-143.77;61.77
13836;BME280;6988;52.614;13.500;2022-08-01T09:48:10;53523.47;;;-143.77;61.60
13836;BME280;6988;52.614;13.500;2022-08-01T09:53:03;53564.50;;;-143.77;61.68
13836;BME280;6988;52.614;13.500;2022-08-01T09:57:55;53513.22;;;-143.77;62.26
13836;BME280;6988;52.614;13.500;2022-08-01T10:02:50;53535.78;;;-143.77;62.91
13836;BME280;6988;52.614;13.500;2022-08-01T10:07:57;53537.84;;;-143.77;62.87
13836;BME280;6988;52.614;13.500;2022-08-01T10:12:51;53519.38;;;-143.77;63.10
13836;BME280;6988;52.614;13.500;2022-08-01T10:17:52;53523.47;;;-143.77;62.35
13836;BME280;6988;52.614;13.500;2022-08-01T10:22:45;53511.16;;;-143.77;62.58
13836;BME280;6988;52.614;13.500;2022-08-01T10:27:39;53511.16;;;-143.77;62.04
13836;BME280;6988;52.614;13.500;2022-08-01T10:32:36;53310.13;;;-143.77;61.58
13836;BME280;6988;52.614;13.500;2022-08-01T10:37:29;53457.81;;;-143.77;60.00
13836;BME280;6988;52.614;13.500;2022-08-01T10:42:21;53429.09;;;-143.77;59.95
13836;BME280;6988;52.614;13.500;2022-08-01T10:47:17;53470.13;;;-143.77;60.05
13836;BME280;6988;52.614;13.500;2022-08-01T10:52:15;53490.66;;;-143.77;59.94
13836;BME280;6988;52.614;13.500;2022-08-01T10:57:08;53531.69;;;-143.77;61.64
13836;BME280;6988;52.614;13.500;2022-08-01T11:02:03;53507.06;;;-143.77;62.24
13836;BME280;6988;52.614;13.500;2022-08-01T11:07:04;53525.53;;;-143.77;62.53
13836;BME280;6988;52.614;13.500;2022-08-01T11:12:01;53519.38;;;-143.77;62.34
13836;BME280;6988;52.614;13.500;2022-08-01T11:16:57;53519.38;;;-143.77;61.77
13836;BME280;6988;52.614;13.500;2022-08-01T11:22:07;53519.38;;;-143.77;61.62
13836;BME280;6988;52.614;13.500;2022-08-01T11:27:18;53535.78;;;-143.77;62.45
13836;BME280;6988;52.614;13.500;2022-08-01T11:32:26;53519.38;;;-143.77;64.36
13836;BME280;6988;52.614;13.500;2022-08-01T11:37:26;53552.19;;;-143.77;64.59
13836;BME280;6988;52.614;13.500;2022-08-01T11:42:19;53589.13;;;-143.77;66.19
13836;BME280;6988;52.614;13.500;2022-08-01T11:47:11;53566.56;;;-143.77;68.23
13836;BME280;6988;52.614;13.500;2022-08-01T11:52:08;53556.28;;;-143.77;67.78
13836;BME280;6988;52.614;13.500;2022-08-01T11:57:05;53529.63;;;-143.77;67.63
13836;BME280;6988;52.614;13.500;2022-08-01T12:01:57;53513.22;;;-143.77;65.69
13836;BME280;6988;52.614;13.500;2022-08-01T12:06:49;53529.63;;;-143.77;65.17
13836;BME280;6988;52.614;13.500;2022-08-01T12:11:42;53498.84;;;-143.77;64.42
13836;BME280;6988;52.614;13.500;2022-08-01T12:16:34;53453.72;;;-143.77;63.27
13836;BME280;6988;52.614;13.500;2022-08-01T12:21:25;53433.22;;;-143.77;61.54
13836;BME280;6988;52.614;13.500;2022-08-01T12:26:17;53490.66;;;-143.77;62.06
13836;BME280;6988;52.614;13.500;2022-08-01T12:31:11;53492.69;;;-143.77;61.04
13836;BME280;6988;52.614;13.500;2022-08-01T12:36:03;53568.59;;;-143.77;61.17
13836;BME280;6988;52.614;13.500;2022-08-01T12:40:55;53552.19;;;-143.77;62.60
13836;BME280;6988;52.614;13.500;2022-08-01T12:45:49;53585.00;;;-143.77;63.31
13836;BME280;6988;52.614;13.500;2022-08-01T12:50:46;53490.66;;;-143.77;62.59
13836;BME280;6988;52.614;13.500;2022-08-01T12:55:45;53459.88;;;-143.77;62.07
13836;BME280;6988;52.614;13.500;2022-08-01T13:00:40;53488.59;;;-143.77;60.99
13836;BME280;6988;52.614;13.500;2022-08-01T13:05:44;53490.66;;;-143.77;60.93
13836;BME280;6988;52.614;13.500;2022-08-01T13:10:36;53507.06;;;-143.77;61.11
13836;BME280;6988;52.614;13.500;2022-08-01T13:15:30;53521.41;;;-143.77;61.51
13836;BME280;6988;52.614;13.500;2022-08-01T13:20:30;53496.81;;;-143.77;60.06
13836;BME280;6988;52.614;13.500;2022-08-01T13:25:23;53507.06;;;-143.77;61.22
13836;BME280;6988;52.614;13.500;2022-08-01T13:30:18;53527.56;;;-143.77;61.66
13836;BME280;6988;52.614;13.500;2022-08-01T13:35:12;53502.97;;;-143.77;62.02
13836;BME280;6988;52.614;13.500;2022-08-01T13:40:07;53482.44;;;-143.77;61.23
13836;BME280;6988;52.614;13.500;2022-08-01T13:45:01;53478.34;;;-143.77;60.83
13836;BME280;6988;52.614;13.500;2022-08-01T13:49:53;53492.69;;;-143.77;60.55
13836;BME280;6988;52.614;13.500;2022-08-01T13:54:45;53507.06;;;-143.77;60.01
13836;BME280;6988;52.614;13.500;2022-08-01T13:59:37;53515.25;;;-143.77;59.94
13836;BME280;6988;52.614;13.500;2022-08-01T14:04:30;53502.97;;;-143.77;60.14
13836;BME280;6988;52.614;13.500;2022-08-01T14:09:22;53494.75;;;-143.77;60.88
13836;BME280;6988;52.614;13.500;2022-08-01T14:14:13;53476.28;;;-143.77;60.93
13836;BME280;6988;52.614;13.500;2022-08-01T14:19:05;53466.03;;;-143.77;60.54
13836;BME280;6988;52.614;13.500;2022-08-01T14:23:58;53425.00;;;-143.77;58.44
13836;BME280;6988;52.614;13.500;2022-08-01T14:28:50;53404.50;;;-143.77;58.33
13836;BME280;6988;52.614;13.500;2022-08-01T14:33:42;53383.97;;;-143.77;57.04
13836;BME280;6988;52.614;13.500;2022-08-01T14:38:34;53400.38;;;-143.77;55.79
13836;BME280;6988;52.614;13.500;2022-08-01T14:43:27;53404.50;;;-143.77;55.45
13836;BME280;6988;52.614;13.500;2022-08-01T14:48:19;53429.09;;;-143.77;55.27
13836;BME280;6988;52.614;13.500;2022-08-01T14:53:11;53445.50;;;-143.77;55.99
13836;BME280;6988;52.614;13.500;2022-08-01T14:58:02;53457.81;;;-143.77;56.71
13836;BME280;6988;52.614;13.500;2022-08-01T15:02:55;53412.69;;;-143.77;56.73
13836;BME280;6988;52.614;13.500;2022-08-01T15:07:47;53394.22;;;-143.77;56.31
13836;BME280;6988;52.614;13.500;2022-08-01T15:12:39;53425.00;;;-143.77;55.23
13836;BME280;6988;52.614;13.500;2022-08-01T15:17:31;53359.34;;;-143.77;53.90
13836;BME280;6988;52.614;13.500;2022-08-01T15:22:26;53371.66;;;-143.77;51.10
13836;BME280;6988;52.614;13.500;2022-08-01T15:27:19;53392.19;;;-143.77;50.59
13836;BME280;6988;52.614;13.500;2022-08-01T15:32:11;53355.25;;;-143.77;51.27
13836;BME280;6988;52.614;13.500;2022-08-01T15:37:04;53375.78;;;-143.77;50.60
13836;BME280;6988;52.614;13.500;2022-08-01T15:42:04;53320.38;;;-143.77;50.56
13836;BME280;6988;52.614;13.500;2022-08-01T15:46:56;53342.94;;;-143.77;48.94
13836;BME280;6988;52.614;13.500;2022-08-01T15:51:48;53351.16;;;-143.77;48.38
13836;BME280;6988;52.614;13.500;2022-08-01T15:56:40;53340.91;;;-143.77;48.26
13836;BME280;6988;52.614;13.500;2022-08-01T16:01:34;53322.44;;;-143.77;47.36
13836;BME280;6988;52.614;13.500;2022-08-01T16:06:27;53383.97;;;-143.77;48.19
13836;BME280;6988;52.614;13.500;2022-08-01T16:11:19;53404.50;;;-143.77;48.23
13836;BME280;6988;52.614;13.500;2022-08-01T16:16:13;53478.34;;;-143.77;48.24
13836;BME280;6988;52.614;13.500;2022-08-01T16:21:08;53412.69;;;-143.77;48.47
13836;BME280;6988;52.614;13.500;2022-08-01T16:26:01;53441.41;;;-143.77;49.24
13836;BME280;6988;52.614;13.500;2022-08-01T16:30:52;53396.28;;;-143.77;49.58
13836;BME280;6988;52.614;13.500;2022-08-01T16:35:45;53404.50;;;-143.77;49.21
13836;BME280;6988;52.614;13.500;2022-08-01T16:40:38;53420.91;;;-143.77;48.90
13836;BME280;6988;52.614;13.500;2022-08-01T16:45:30;53429.09;;;-143.77;49.32
13836;BME280;6988;52.614;13.500;2022-08-01T16:50:22;53416.78;;;-143.77;50.57
13836;BME280;6988;52.614;13.500;2022-08-01T16:55:14;53404.50;;;-143.77;50.57
13836;BME280;6988;52.614;13.500;2022-08-01T17:00:11;53429.09;;;-143.77;50.55
13836;BME280;6988;52.614;13.500;2022-08-01T17:05:05;53437.31;;;-143.77;50.63
13836;BME280;6988;52.614;13.500;2022-08-01T17:09:57;53427.06;;;-143.77;50.88
13836;BME280;6988;52.614;13.500;2022-08-01T17:14:50;53461.94;;;-143.77;51.20
13836;BME280;6988;52.614;13.500;2022-08-01T17:19:43;53429.09;;;-143.77;52.15
13836;BME280;6988;52.614;13.500;2022-08-01T17:24:35;53453.72;;;-143.77;52.21
13836;BME280;6988;52.614;13.500;2022-08-01T17:29:27;53466.03;;;-143.77;52.41
13836;BME280;6988;52.614;13.500;2022-08-01T17:34:19;53529.63;;;-143.77;52.80
13836;BME280;6988;52.614;13.500;2022-08-01T17:39:12;53461.94;;;-143.77;52.10
13836;BME280;6988;52.614;13.500;2022-08-01T17:44:04;53461.94;;;-143.77;52.68
13836;BME280;6988;52.614;13.500;2022-08-01T17:48:56;53486.53;;;-143.77;52.41
13836;BME280;6988;52.614;13.500;2022-08-01T17:53:49;53486.53;;;-143.77;52.76
13836;BME280;6988;52.614;13.500;2022-08-01T17:58:42;53478.34;;;-143.77;52.45
13836;BME280;6988;52.614;13.500;2022-08-01T18:03:35;53496.81;;;-143.77;52.91
13836;BME280;6988;52.614;13.500;2022-08-01T18:08:27;53502.97;;;-143.77;53.32
13836;BME280;6988;52.614;13.500;2022-08-01T18:13:19;53519.38;;;-143.77;53.42
13836;BME280;6988;52.614;13.500;2022-08-01T18:18:13;53546.03;;;-143.77;53.68
13836;BME280;6988;52.614;13.500;2022-08-01T18:23:06;53531.69;;;-143.77;53.32
13836;BME280;6988;52.614;13.500;2022-08-01T18:28:00;53531.69;;;-143.77;53.79
13836;BME280;6988;52.614;13.500;2022-08-01T18:32:52;53527.56;;;-143.77;54.02
13836;BME280;6988;52.614;13.500;2022-08-01T18:37:46;53486.53;;;-143.77;54.59
13836;BME280;6988;52.614;13.500;2022-08-01T18:42:38;53580.91;;;-143.77;55.79
13836;BME280;6988;52.614;13.500;2022-08-01T18:47:30;53574.75;;;-143.77;55.99
13836;BME280;6988;52.614;13.500;2022-08-01T18:52:21;53601.44;;;-143.77;55.55
13836;BME280;6988;52.614;13.500;2022-08-01T18:57:14;53597.31;;;-143.77;54.85
13836;BME280;6988;52.614;13.500;2022-08-01T19:02:06;53574.75;;;-143.77;55.03
13836;BME280;6988;52.614;13.500;2022-08-01T19:06:58;53601.44;;;-143.77;55.48
13836;BME280;6988;52.614;13.500;2022-08-01T19:11:50;53621.94;;;-143.77;56.04
13836;BME280;6988;52.614;13.500;2022-08-01T19:16:43;53640.41;;;-143.77;56.22
13836;BME280;6988;52.614;13.500;2022-08-01T19:21:35;53619.88;;;-143.77;56.04
13836;BME280;6988;52.614;13.500;2022-08-01T19:26:27;53580.91;;;-143.77;56.49
13836;BME280;6988;52.614;13.500;2022-08-01T19:31:24;53605.53;;;-143.77;56.16
13836;BME280;6988;52.614;13.500;2022-08-01T19:36:18;53603.47;;;-143.77;56.42
13836;BME280;6988;52.614;13.500;2022-08-01T19:41:10;53619.88;;;-143.77;56.99
13836;BME280;6988;52.614;13.500;2022-08-01T19:46:03;53617.84;;;-143.77;56.71
13836;BME280;6988;52.614;13.500;2022-08-01T19:50:58;53646.56;;;-143.77;57.03
13836;BME280;6988;52.614;13.500;2022-08-01T19:55:54;53638.34;;;-143.77;57.14
13836;BME280;6988;52.614;13.500;2022-08-01T20:00:49;53640.41;;;-143.77;57.16
13836;BME280;6988;52.614;13.500;2022-08-01T20:05:42;53656.81;;;-143.77;56.72
13836;BME280;6988;52.614;13.500;2022-08-01T20:10:36;53648.59;;;-143.77;56.99
13836;BME280;6988;52.614;13.500;2022-08-01T20:15:29;53656.81;;;-143.77;57.40
13836;BME280;6988;52.614;13.500;2022-08-01T20:20:21;53638.34;;;-143.77;57.66
13836;BME280;6988;52.614;13.500;2022-08-01T20:25:14;53638.34;;;-143.77;57.56
13836;BME280;6988;52.614;13.500;2022-08-01T20:30:09;53660.91;;;-143.77;58.14
13836;BME280;6988;52.614;13.500;2022-08-01T20:35:03;53654.75;;;-143.77;58.17
13836;BME280;6988;52.614;13.500;2022-08-01T20:39:58;53675.28;;;-143.77;58.76
13836;BME280;6988;52.614;13.500;2022-08-01T20:44:52;53638.34;;;-143.77;59.06
13836;BME280;6988;52.614;13.500;2022-08-01T20:49:46;53673.22;;;-143.77;59.55
13836;BME280;6988;52.614;13.500;2022-08-01T20:54:40;53693.75;;;-143.77;59.72
13836;BME280;6988;52.614;13.500;2022-08-01T20:59:47;53679.38;;;-143.77;59.71
13836;BME280;6988;52.614;13.500;2022-08-01T21:04:55;53683.50;;;-143.77;60.34
13836;BME280;6988;52.614;13.500;2022-08-01T21:10:03;53691.69;;;-143.77;60.28
13836;BME280;6988;52.614;13.500;2022-08-01T21:15:00;53718.34;;;-143.77;60.86
13836;BME280;6988;52.614;13.500;2022-08-01T21:19:55;53689.63;;;-143.77;62.11
13836;BME280;6988;52.614;13.500;2022-08-01T21:24:54;53718.34;;;-143.77;63.21
13836;BME280;6988;52.614;13.500;2022-08-01T21:29:49;53745.03;;;-143.77;63.33
13836;BME280;6988;52.614;13.500;2022-08-01T21:34:45;53730.66;;;-143.77;63.56
13836;BME280;6988;52.614;13.500;2022-08-01T21:39:39;53742.97;;;-143.77;63.52
13836;BME280;6988;52.614;13.500;2022-08-01T21:44:37;53706.06;;;-143.77;63.67
13836;BME280;6988;52.614;13.500;2022-08-01T21:49:29;53708.09;;;-143.77;64.04
13836;BME280;6988;52.614;13.500;2022-08-01T21:54:27;53720.41;;;-143.77;64.32
13836;BME280;6988;52.614;13.500;2022-08-01T21:59:27;53753.25;;;-143.77;64.67
13836;BME280;6988;52.614;13.500;2022-08-01T22:04:37;53763.50;;;-143.77;64.74
13836;BME280;6988;52.614;13.500;2022-08-01T22:09:32;53759.41;;;-143.77;64.98
13836;BME280;6988;52.614;13.500;2022-08-01T22:14:27;53755.28;;;-143.77;65.36
13836;BME280;6988;52.614;13.500;2022-08-01T22:19:20;53749.13;;;-143.77;65.51
13836;BME280;6988;52.614;13.500;2022-08-01T22:24:15;53740.94;;;-143.77;65.63
13836;BME280;6988;52.614;13.500;2022-08-01T22:29:07;53773.75;;;-143.77;65.92
13836;BME280;6988;52.614;13.500;2022-08-01T22:33:59;53745.03;;;-143.77;66.05
13836;BME280;6988;52.614;13.500;2022-08-01T22:38:51;53775.81;;;-143.77;66.29
13836;BME280;6988;52.614;13.500;2022-08-01T22:43:59;53767.59;;;-143.77;66.17
13836;BME280;6988;52.614;13.500;2022-08-01T22:48:59;53794.28;;;-143.77;66.50
13836;BME280;6988;52.614;13.500;2022-08-01T22:54:02;53786.06;;;-143.77;66.58
13836;BME280;6988;52.614;13.500;2022-08-01T22:59:00;53812.72;;;-143.77;66.70
13836;BME280;6988;52.614;13.500;2022-08-01T23:03:56;53827.09;;;-143.77;66.81
13836;BME280;6988;52.614;13.500;2022-08-01T23:08:50;53765.53;;;-143.77;67.03
13836;BME280;6988;52.614;13.500;2022-08-01T23:13:44;53802.47;;;-143.77;67.56
13836;BME280;6988;52.614;13.500;2022-08-01T23:18:39;53788.13;;;-143.77;67.84
13836;BME280;6988;52.614;13.500;2022-08-01T23:23:33;53800.41;;;-143.77;68.29
13836;BME280;6988;52.614;13.500;2022-08-01T23:28:26;53818.88;;;-143.77;68.10
13836;BME280;6988;52.614;13.500;2022-08-01T23:33:18;53833.25;;;-143.77;67.92
13836;BME280;6988;52.614;13.500;2022-08-01T23:38:12;53808.63;;;-143.77;68.03
13836;BME280;6988;52.614;13.500;2022-08-01T23:43:05;53786.06;;;-143.77;68.10
13836;BME280;6988;52.614;13.500;2022-08-01T23:47:57;53794.28;;;-143.77;68.12
13836;BME280;6988;52.614;13.500;2022-08-01T23:52:49;53823.00;;;-143.77;68.37
13836;BME280;6988;52.614;13.500;2022-08-01T23:57:43;53806.56;;;-143.77;68.35
